Time;durP1;ratioP1;P1;durP2;ratioP2;P2;SDS_P1;SDS_P2;PMS_P1;PMS_P2;Temp;Humidity;BMP_temperature;BMP_pressure;BME280_temperature;BME280_humidity;BME280_pressure;Samples;Min_cycle;Max_cycle;Signal;HPM_P1;HPM_P2
2022/11/15 00:02:01;;;;;;;;;;;10.30;99.90;;;;;;4914767;29;20017;-82
2022/11/15 00:04:45;;;;;;;;;;;10.30;99.90;;;;;;4916875;29;19939;-82
2022/11/15 00:07:29;;;;;;;;;;;10.30;99.90;;;;;;4916500;29;19926;-82
2022/11/15 00:10:13;;;;;;;;;;;10.30;99.90;;;;;;4916427;29;20006;-81
2022/11/15 00:12:57;;;;;;;;;;;10.30;99.90;;;;;;4916328;29;19970;-82
2022/11/15 00:15:41;;;;;;;;;;;10.30;99.90;;;;;;4915992;29;19922;-82
2022/11/15 00:18:26;;;;;;;;;;;10.30;99.90;;;;;;4915524;29;20462;-82
2022/11/15 00:21:11;;;;;;;;;;;10.40;99.90;;;;;;4916026;29;19934;-81
2022/11/15 00:23:55;;;;;;;;;;;10.30;99.90;;;;;;4916347;29;20288;-81
2022/11/15 00:26:39;;;;;;;;;;;10.40;99.90;;;;;;4915337;29;19922;-81
2022/11/15 00:29:23;;;;;;;;;;;10.40;99.90;;;;;;4914813;29;19926;-81
2022/11/15 00:32:08;;;;;;;;;;;10.40;99.90;;;;;;4914759;29;19921;-81
2022/11/15 00:34:52;;;;;;;;;;;10.40;99.90;;;;;;4916078;29;19963;-81
2022/11/15 00:37:36;;;;;;;;;;;10.40;99.90;;;;;;4915498;29;19969;-82
2022/11/15 00:40:20;;;;;;;;;;;10.40;99.90;;;;;;4916047;29;19922;-81
2022/11/15 00:43:05;;;;;;;;;;;10.40;99.90;;;;;;4915672;29;19922;-82
2022/11/15 00:45:49;;;;;;;;;;;10.40;99.90;;;;;;4914890;29;19922;-82
2022/11/15 00:48:33;;;;;;;;;;;10.40;99.90;;;;;;4914885;29;19930;-82
2022/11/15 00:51:17;;;;;;;;;;;10.40;99.90;;;;;;4915642;29;19974;-81
2022/11/15 00:54:02;;;;;;;;;;;10.50;99.90;;;;;;4916277;29;20019;-82
2022/11/15 00:56:46;;;;;;;;;;;10.50;99.90;;;;;;4915629;29;19926;-82
2022/11/15 00:59:30;;;;;;;;;;;10.50;99.90;;;;;;4915452;29;20021;-82
2022/11/15 01:02:14;;;;;;;;;;;10.50;99.90;;;;;;4914479;29;19922;-81
2022/11/15 01:04:59;;;;;;;;;;;10.50;99.90;;;;;;4915719;29;19982;-81
2022/11/15 01:07:43;;;;;;;;;;;10.50;99.90;;;;;;4915460;29;20260;-82
2022/11/15 01:10:27;;;;;;;;;;;10.60;99.90;;;;;;4915726;29;19978;-82
2022/11/15 01:13:11;;;;;;;;;;;10.60;99.90;;;;;;4914295;29;20054;-82
2022/11/15 01:15:55;;;;;;;;;;;10.60;99.90;;;;;;4915554;29;19929;-82
2022/11/15 01:18:40;;;;;;;;;;;10.60;99.90;;;;;;4915188;29;19923;-81
2022/11/15 01:21:24;;;;;;;;;;;10.70;99.90;;;;;;4915258;29;19963;-82
2022/11/15 01:24:11;;;;;;;;;;;10.70;99.90;;;;;;4915234;29;19970;-81
2022/11/15 01:26:55;;;;;;;;;;;10.70;99.90;;;;;;4914678;29;19922;-81
2022/11/15 01:29:40;;;;;;;;;;;10.80;99.90;;;;;;4914766;29;19966;-81
2022/11/15 01:32:24;;;;;;;;;;;10.80;99.90;;;;;;4913921;29;19922;-81
2022/11/15 01:35:08;;;;;;;;;;;10.70;99.90;;;;;;4913964;29;19922;-81
2022/11/15 01:37:52;;;;;;;;;;;10.70;99.90;;;;;;4913608;29;19979;-81
2022/11/15 01:40:37;;;;;;;;;;;10.80;99.90;;;;;;4912146;29;20034;-82
2022/11/15 01:43:25;;;;;;;;;;;10.80;99.90;;;;;;4914067;29;19926;-81
2022/11/15 01:46:25;;;;;;;;;;;10.90;99.90;;;;;;4914057;29;19980;-82
2022/11/15 01:49:20;;;;;;;;;;;10.90;99.90;;;;;;4915060;29;19982;-81
2022/11/15 01:52:08;;;;;;;;;;;10.90;99.90;;;;;;4914716;29;19993;-82
2022/11/15 01:54:54;;;;;;;;;;;10.90;99.90;;;;;;4915450;29;20252;-81
2022/11/15 01:57:39;;;;;;;;;;;10.90;99.90;;;;;;4914299;29;19923;-82
2022/11/15 02:00:23;;;;;;;;;;;10.90;99.90;;;;;;4914629;29;20296;-82
2022/11/15 02:03:07;;;;;;;;;;;10.90;99.90;;;;;;4913470;29;19926;-82
2022/11/15 02:05:52;;;;;;;;;;;10.90;99.90;;;;;;4914574;29;20624;-82
2022/11/15 02:08:36;;;;;;;;;;;10.90;99.90;;;;;;4914475;29;19938;-82
2022/11/15 02:11:20;;;;;;;;;;;10.90;99.90;;;;;;4914352;29;20443;-82
2022/11/15 02:14:05;;;;;;;;;;;11.00;99.90;;;;;;4914413;29;20287;-82
2022/11/15 02:16:59;;;;;;;;;;;11.00;99.90;;;;;;4913473;29;19931;-82
2022/11/15 02:19:58;;;;;;;;;;;11.00;99.90;;;;;;4914353;29;20043;-81
2022/11/15 02:22:55;;;;;;;;;;;10.90;99.90;;;;;;4914260;29;20369;-82
2022/11/15 02:25:55;;;;;;;;;;;11.00;99.90;;;;;;4914742;29;20349;-82
2022/11/15 02:28:47;;;;;;;;;;;11.00;99.90;;;;;;4914248;29;19926;-82
2022/11/15 02:31:50;;;;;;;;;;;11.00;99.90;;;;;;4913647;29;19926;-82
2022/11/15 02:34:46;;;;;;;;;;;11.00;99.90;;;;;;4914464;29;19985;-82
2022/11/15 02:37:34;;;;;;;;;;;11.00;99.90;;;;;;4913957;29;19923;-82
2022/11/15 02:40:18;;;;;;;;;;;11.00;99.90;;;;;;4914204;29;19922;-81
2022/11/15 02:44:13;;;;;;;;;;;11.00;99.90;;;;;;4913992;29;20435;-82
2022/11/15 02:47:12;;;;;;;;;;;11.10;99.90;;;;;;4911282;29;20251;-82
2022/11/15 02:49:32;;;;;;;;;;;11.00;99.90;;;;;;4913914;29;19930;-81
2022/11/15 02:52:16;;;;;;;;;;;11.10;99.90;;;;;;4914265;29;19922;-81
2022/11/15 02:55:01;;;;;;;;;;;11.10;99.90;;;;;;4914509;29;19963;-81
2022/11/15 02:57:51;;;;;;;;;;;11.10;99.90;;;;;;4913906;29;19931;-81
2022/11/15 03:00:39;;;;;;;;;;;11.10;99.90;;;;;;4913869;29;20335;-82
2022/11/15 03:03:29;;;;;;;;;;;11.10;99.90;;;;;;4912799;29;19974;-82
2022/11/15 03:06:29;;;;;;;;;;;11.10;99.90;;;;;;4913531;29;19922;-81
2022/11/15 03:09:22;;;;;;;;;;;11.20;99.90;;;;;;4913998;29;19926;-82
2022/11/15 03:12:08;;;;;;;;;;;11.10;99.90;;;;;;4917311;29;20010;-81
2022/11/15 03:15:01;;;;;;;;;;;11.20;99.90;;;;;;4917651;29;20272;-81
2022/11/15 03:17:48;;;;;;;;;;;11.20;99.90;;;;;;4916424;29;19977;-81
2022/11/15 03:20:34;;;;;;;;;;;11.10;99.90;;;;;;4917780;29;19970;-82
2022/11/15 03:23:19;;;;;;;;;;;11.20;99.90;;;;;;4917200;29;20339;-82
2022/11/15 03:26:06;;;;;;;;;;;11.20;99.90;;;;;;4917636;29;19922;-81
2022/11/15 03:28:53;;;;;;;;;;;11.20;99.90;;;;;;4917315;29;20287;-82
2022/11/15 03:31:48;;;;;;;;;;;11.20;99.90;;;;;;4916537;29;19926;-82
2022/11/15 03:34:39;;;;;;;;;;;11.20;99.90;;;;;;4917324;29;20017;-81
2022/11/15 03:37:28;;;;;;;;;;;11.20;99.90;;;;;;4916936;29;19970;-81
2022/11/15 03:40:12;;;;;;;;;;;11.20;99.90;;;;;;4915825;29;19971;-81
2022/11/15 03:43:20;;;;;;;;;;;11.20;99.90;;;;;;4916616;29;20486;-82
2022/11/15 03:46:07;;;;;;;;;;;11.20;99.90;;;;;;4916845;29;20314;-82
2022/11/15 03:49:12;;;;;;;;;;;11.20;99.90;;;;;;4916890;29;19975;-82
2022/11/15 03:51:57;;;;;;;;;;;11.20;99.90;;;;;;4916750;29;20418;-81
2022/11/15 03:54:52;;;;;;;;;;;11.30;99.90;;;;;;4916673;29;20033;-82
2022/11/15 03:57:37;;;;;;;;;;;11.30;99.90;;;;;;4916620;29;19994;-82
2022/11/15 04:00:21;;;;;;;;;;;11.30;99.90;;;;;;4916653;29;19926;-81
2022/11/15 04:24:57;;;;;;;;;;;11.40;99.90;;;;;;5697869;23;20308;-94
2022/11/15 04:27:47;;;;;;;;;;;11.40;99.90;;;;;;4915996;29;19930;-89
2022/11/15 04:30:40;;;;;;;;;;;11.40;99.90;;;;;;4918735;29;19962;-85
2022/11/15 04:46:28;;;;;;;;;;;11.50;99.90;;;;;;4895849;29;19939;-94
2022/11/15 05:37:48;;;;;;;;;;;11.60;99.90;;;;;;5918607;23;19925;-86
2022/11/15 05:47:11;;;;;;;;;;;11.70;99.90;;;;;;5183514;23;19954;-96
2022/11/15 06:10:14;;;;;;;;;;;11.60;99.90;;;;;;5003963;23;19938;-89
2022/11/15 07:00:43;;;;;;;72.35;15.65;;;11.60;99.90;;;;;;4896463;29;19934;-85
2022/11/15 07:12:41;;;;;;;;;;;13.80;99.90;;;;;;5536007;23;19927;-92
2022/11/15 07:15:29;;;;;;;;;;;14.10;99.90;;;;;;4913744;29;19981;-89
2022/11/15 07:18:14;;;;;;;;;;;13.80;99.90;;;;;;4912700;29;19922;-88
2022/11/15 07:21:09;;;;;;;;;;;13.40;99.90;;;;;;4914343;29;20027;-89
2022/11/15 07:24:20;;;;;;;;;;;13.20;99.90;;;;;;4914241;29;19922;-89
2022/11/15 07:27:22;;;;;;;;;;;13.00;99.90;;;;;;4915422;29;20392;-90
2022/11/15 07:30:07;;;;;;;;;;;12.70;99.90;;;;;;4917472;29;19918;-89
2022/11/15 07:33:28;;;;;;;;;;;12.60;99.90;;;;;;4917315;29;19954;-89
2022/11/15 07:36:26;;;;;;;;;;;;;;;;;;;;;
2022/11/15 07:39:23;;;;;;;;;;;;;;;;;;;;;
2022/11/15 07:45:11;;;;;;;;;;;12.30;99.90;;;;;;4914091;29;20363;-83
2022/11/15 07:47:58;;;;;;;;;;;12.20;99.90;;;;;;4912351;29;20347;-86
2022/11/15 07:50:42;;;;;;;;;;;12.20;99.90;;;;;;4915716;29;19961;-88
2022/11/15 07:53:30;;;;;;;;;;;12.10;99.90;;;;;;4914176;29;19939;-88
2022/11/15 07:56:14;;;;;;;;;;;12.20;99.90;;;;;;4914344;29;19922;-82
2022/11/15 07:59:07;;;;;;;;;;;12.20;99.90;;;;;;4917174;29;19922;-85
2022/11/15 08:04:49;;;;;;;;;;;12.10;99.90;;;;;;4137336;27;19927;-88
2022/11/15 08:07:40;;;;;;;;;;;12.10;99.90;;;;;;4934786;23;19926;-89
2022/11/15 08:10:30;;;;;;;;;;;12.00;99.90;;;;;;4925396;23;20010;-81
2022/11/15 08:13:17;;;;;;;;;;;11.90;99.90;;;;;;4917198;29;19922;-89
2022/11/15 08:16:05;;;;;;;;;;;11.90;99.90;;;;;;4917520;29;19918;-86
2022/11/15 08:18:49;;;;;;;;;;;11.90;99.90;;;;;;4917177;29;20463;-86
2022/11/15 08:21:33;;;;;;;;;;;11.80;99.90;;;;;;4917572;29;20419;-87
2022/11/15 08:30:31;;;;;;;;;;;11.70;99.90;;;;;;5417304;23;19981;-87
2022/11/15 08:33:15;;;;;;;;;;;11.70;99.90;;;;;;4907580;29;19971;-81
2022/11/15 08:36:00;;;;;;;;;;;11.70;99.90;;;;;;4896877;29;19918;-82
2022/11/15 08:38:44;;;;;;;;;;;11.70;99.90;;;;;;4901447;29;20004;-84
2022/11/15 08:41:33;;;;;;;;;;;11.70;99.90;;;;;;4897111;29;20504;-83
2022/11/15 08:44:17;;;;;;;;;;;11.70;99.90;;;;;;4897429;29;19917;-84
2022/11/15 08:47:01;;;;;;;;;;;11.70;99.90;;;;;;4895994;29;20032;-83
2022/11/15 08:49:48;;;;;;;;;;;11.70;99.90;;;;;;5050982;23;19927;-88
2022/11/15 08:52:33;;;;;;;;;;;11.70;99.90;;;;;;4917883;29;19922;-87
2022/11/15 08:55:17;;;;;;;;;;;11.70;99.90;;;;;;4917167;29;19918;-85
2022/11/15 08:58:01;;;;;;;;;;;11.70;99.90;;;;;;4913764;29;19987;-85
2022/11/15 09:00:45;;;;;;;;;;;11.80;99.90;;;;;;4914828;29;19927;-85
2022/11/15 09:03:30;;;;;;;;;;;11.70;99.90;;;;;;4912695;29;19966;-86
2022/11/15 09:06:14;;;;;;;;;;;11.70;99.90;;;;;;4914211;29;19918;-85
2022/11/15 09:09:00;;;;;;;;;;;11.70;99.90;;;;;;4914584;29;19918;-86
2022/11/15 09:11:44;;;;;;;;;;;11.80;99.90;;;;;;4914268;29;20010;-86
2022/11/15 09:14:28;;;;;;;;;;;11.80;99.90;;;;;;4915173;29;19918;-86
2022/11/15 09:17:12;;;;;;;;;;;11.80;99.90;;;;;;4914383;29;20395;-86
2022/11/15 09:19:57;;;;;;;;;;;11.80;99.90;;;;;;4915546;29;19977;-86
2022/11/15 09:22:41;;;;;;;;;;;11.90;99.90;;;;;;4915708;29;20291;-86
2022/11/15 09:25:28;;;;;;;;;;;12.00;99.90;;;;;;4915861;29;19926;-86
2022/11/15 09:28:12;;;;;;;;;;;12.10;99.90;;;;;;4915640;29;19918;-86
2022/11/15 09:31:00;;;;;;;;;;;12.10;99.90;;;;;;4914705;29;20403;-86
2022/11/15 09:33:45;;;;;;;;;;;12.10;99.90;;;;;;4915534;29;19934;-86
2022/11/15 09:36:32;;;;;;;;;;;12.20;99.90;;;;;;4914902;29;19917;-86
2022/11/15 09:39:16;;;;;;;;;;;12.20;99.90;;;;;;4915186;29;20406;-86
2022/11/15 09:42:18;;;;;;;;;;;12.10;99.90;;;;;;4915323;29;20268;-86
2022/11/15 09:45:14;;;;;;;;;;;12.20;99.90;;;;;;4915334;29;20085;-86
2022/11/15 09:48:04;;;;;;;;;;;12.20;99.90;;;;;;4913968;29;19918;-86
2022/11/15 09:51:11;;;;;;;;;;;12.20;99.90;;;;;;4913598;29;19966;-86
2022/11/15 09:53:47;;;;;;;;;;;12.20;99.90;;;;;;4914831;29;20368;-86
2022/11/15 09:56:23;;;;;;;;;;;12.20;99.90;;;;;;4914824;29;19911;-86
2022/11/15 09:59:01;;;;;;;;;;;12.20;99.90;;;;;;4913226;29;19918;-86
2022/11/15 10:01:42;;;;;;;;;;;12.30;99.90;;;;;;4912342;29;19919;-86
2022/11/15 10:04:08;;;;;;;;;;;12.20;99.90;;;;;;4928827;23;19950;-85
2022/11/15 10:06:37;;;;;;;;;;;12.30;99.90;;;;;;4897319;29;20372;-85
2022/11/15 10:09:16;;;;;;;;;;;12.30;99.90;;;;;;4913253;29;19911;-85
2022/11/15 10:11:42;;;;;;;;;;;12.30;99.90;;;;;;4914104;29;19917;-85
2022/11/15 10:14:13;;;;;;;;;;;12.30;99.90;;;;;;4914424;29;19910;-84
2022/11/15 10:17:09;;;;;;;;;;;12.30;99.90;;;;;;4913327;29;19918;-85
2022/11/15 10:19:47;;;;;;;;;;;12.30;99.90;;;;;;4913904;29;19922;-84
2022/11/15 10:22:12;;;;;;;;;;;12.30;99.90;;;;;;4913966;29;19911;-85
2022/11/15 10:24:41;;;;;;;;;;;12.30;99.90;;;;;;4914237;29;19970;-85
2022/11/15 10:27:11;;;;;;;;;;;12.30;99.90;;;;;;4912650;29;19907;-84
2022/11/15 10:29:42;;;;;;;;;;;12.30;99.90;;;;;;4914136;29;20342;-85
2022/11/15 10:32:09;;;;;;;;;;;12.40;99.90;;;;;;4911692;29;20497;-85
2022/11/15 10:34:35;;;;;;;;;;;12.40;99.90;;;;;;4914268;29;19911;-84
2022/11/15 10:37:04;;;;;;;;;;;12.40;99.90;;;;;;4912319;29;19922;-85
2022/11/15 10:39:30;;;;;;;;;;;12.40;99.90;;;;;;4914010;29;19923;-85
2022/11/15 10:41:56;;;;;;;;;;;12.40;99.90;;;;;;4913792;29;19911;-85
2022/11/15 10:44:24;;;;;;;;;;;12.50;99.90;;;;;;4914265;29;19911;-85
2022/11/15 10:46:56;;;;;;;;;;;12.50;99.90;;;;;;4912831;29;20369;-85
2022/11/15 10:49:25;;;;;;;;;;;12.40;99.90;;;;;;4912619;29;19911;-84
2022/11/15 10:51:53;;;;;;;;;;;12.40;99.90;;;;;;4912511;29;19911;-84
2022/11/15 10:54:37;;;;;;;;;;;12.50;99.90;;;;;;4912738;29;20014;-85
2022/11/15 10:57:10;;;;;;;;;;;12.50;99.90;;;;;;4913624;29;19922;-85
2022/11/15 10:59:37;;;;;;;;;;;12.50;99.90;;;;;;4913754;29;19915;-85
2022/11/15 11:02:22;;;;;;;;;;;12.50;99.90;;;;;;4911582;29;20006;-85
2022/11/15 11:04:52;;;;;;;;;;;12.60;99.90;;;;;;4912198;29;19919;-84
2022/11/15 11:07:22;;;;;;;;;;;12.50;99.90;;;;;;4913593;29;19911;-85
2022/11/15 11:09:56;;;;;;;;;;;12.60;99.90;;;;;;4912384;29;20375;-84
2022/11/15 11:12:26;;;;;;;;;;;12.60;99.90;;;;;;4913374;29;20339;-85
2022/11/15 11:14:52;;;;;;;;;;;12.60;99.90;;;;;;4914041;29;19950;-85
2022/11/15 11:17:33;;;;;;;;;;;12.60;99.90;;;;;;4912620;29;20403;-85
2022/11/15 11:20:14;;;;;;;;;;;12.70;99.90;;;;;;4913421;29;19970;-85
2022/11/15 11:22:55;;;;;;;;;;;12.70;99.90;;;;;;4913199;29;19947;-85
2022/11/15 11:25:43;;;;;;;;;;;12.70;99.90;;;;;;4912389;29;19958;-85
2022/11/15 11:28:24;;;;;;;;;;;12.70;99.90;;;;;;4913319;29;19918;-84
2022/11/15 11:30:59;;;;;;;;;;;12.70;99.90;;;;;;4913028;29;19911;-85
2022/11/15 11:33:27;;;;;;;;;;;12.70;99.90;;;;;;4914841;29;19915;-85
2022/11/15 11:36:12;;;;;;;;;;;12.80;99.90;;;;;;4916971;29;19915;-84
2022/11/15 11:38:38;;;;;;;;;;;12.80;99.90;;;;;;4917046;29;20280;-85
2022/11/15 11:41:03;;;;;;;;;;;12.80;99.90;;;;;;4915775;29;19915;-84
2022/11/15 11:43:41;;;;;;;;;;;12.80;99.90;;;;;;4915425;29;19911;-85
2022/11/15 11:46:19;;;;;;;;;;;12.80;99.90;;;;;;4916874;29;19979;-85
2022/11/15 11:48:51;;;;;;;;;;;12.80;99.90;;;;;;4916619;29;20358;-85
2022/11/15 11:51:20;;;;;;;;;;;12.80;99.90;;;;;;4916661;29;19997;-85
2022/11/15 11:53:45;;;;;;;;;;;12.80;99.90;;;;;;4916852;29;20372;-85
2022/11/15 11:56:32;;;;;;;;;;;12.80;99.90;;;;;;4916402;29;19915;-85
2022/11/15 11:59:12;;;;;;;;;;;12.80;99.90;;;;;;4915453;29;20348;-84
2022/11/15 12:01:41;;;;;;;;;;;12.90;99.90;;;;;;4915508;29;19914;-85
2022/11/15 12:04:19;;;;;;;;;;;12.90;99.90;;;;;;4916455;29;19915;-84
2022/11/15 12:06:47;;;;;;;;;;;12.90;99.90;;;;;;4916306;29;20371;-85
2022/11/15 12:09:30;;;;;;;;;;;12.90;99.90;;;;;;4996990;23;19930;-90
2022/11/15 12:12:19;;;;;;;;;;;12.90;99.90;;;;;;4916842;29;19943;-87
2022/11/15 12:14:51;;;;;;;;;;;12.90;99.90;;;;;;4886440;29;20268;-90
2022/11/15 12:17:32;;;;;;;;;;;13.00;99.90;;;;;;4897001;29;19967;-90
2022/11/15 12:53:32;;;;;;;;;;;;;;;;;;;;;
2022/11/15 12:59:37;;;;;;;;;;;13.00;99.70;;;;;;4920204;29;19939;-86
2022/11/15 13:02:17;;;;;;;;;;;13.10;99.90;;;;;;4918097;29;19914;-84
2022/11/15 13:04:42;;;;;;;;;;;13.10;99.90;;;;;;4919794;29;19915;-84
2022/11/15 13:07:28;;;;;;;;;;;13.10;99.90;;;;;;4918705;29;19931;-84
2022/11/15 13:09:55;;;;;;;;;;;13.20;99.90;;;;;;4919572;29;19911;-85
2022/11/15 13:12:27;;;;;;;;;;;13.20;99.90;;;;;;4902371;29;20411;-84
2022/11/15 13:14:53;;;;;;;;;;;13.20;99.90;;;;;;4919544;29;19915;-84
2022/11/15 13:17:41;;;;;;;;;;;13.20;99.90;;;;;;4917419;29;20408;-90
2022/11/15 13:20:06;;;;;;;;;;;13.30;99.90;;;;;;4915638;29;20014;-84
2022/11/15 13:22:51;;;;;;;;;;;13.80;99.90;;;;;;4915401;29;20006;-84
2022/11/15 13:25:54;;;;;;;;;;;;;;;;;;;;;
2022/11/15 13:28:55;;;;;;;;;;;;;;;;;;;;;
2022/11/15 13:34:46;;;;;;;;;;;14.00;99.90;;;;;;4903025;29;20269;-88
2022/11/15 13:37:30;;;;;;;;;;;14.00;99.90;;;;;;4914018;29;19921;-88
2022/11/15 13:40:49;;;;;;;;;;;;;;;;;;;;;
2022/11/15 13:43:28;;;;;;;;;;;13.80;99.90;;;;;;4915785;29;19974;-87
2022/11/15 13:46:15;;;;;;;;;;;13.80;99.90;;;;;;4880644;29;19960;-87
2022/11/15 13:48:58;;;;;;;;;;;13.70;99.90;;;;;;4822687;29;20385;-87
2022/11/15 13:51:24;;;;;;;;;;;13.70;99.90;;;;;;4836798;29;19962;-87
2022/11/15 13:54:03;;;;;;;;;;;13.70;99.90;;;;;;4781719;29;19921;-87
2022/11/15 13:56:32;;;;;;;;;;;13.60;99.90;;;;;;4806058;29;19912;-87
2022/11/15 13:59:24;;;;;;;;;;;13.50;99.90;;;;;;4803396;29;20065;-90
2022/11/15 14:02:21;;;;;;;;;;;13.50;99.90;;;;;;4750543;29;20450;-87
2022/11/15 14:04:51;;;;;;;;;;;13.50;99.90;;;;;;4834438;29;19918;-87
2022/11/15 14:07:20;;;;;;;;;;;13.50;99.90;;;;;;4854918;29;20010;-89
2022/11/15 15:41:49;;;;;;;;;;;12.80;99.90;;;;;;5136789;27;19926;-73
2022/11/15 15:44:15;;;;;;;;;;;12.80;99.90;;;;;;5149365;27;19915;-71
2022/11/15 15:46:40;;;;;;;;;;;12.80;99.90;;;;;;5148669;27;19924;-72
2022/11/15 15:49:09;;;;;;;;;;;12.80;99.90;;;;;;5148760;27;20375;-72
2022/11/15 15:51:34;;;;;;;;;;;12.70;99.90;;;;;;5148663;27;20530;-73
2022/11/15 15:54:00;;;;;;;;;;;12.80;99.90;;;;;;5148987;27;19916;-73
2022/11/15 15:56:25;;;;;;;;;;;12.80;99.90;;;;;;5148442;27;20350;-75
2022/11/15 15:58:52;;;;;;;;;;;12.70;99.90;;;;;;5147570;27;19925;-71
2022/11/15 16:01:18;;;;;;;;;;;12.70;99.90;;;;;;5149044;27;20461;-69
2022/11/15 16:03:43;;;;;;;;;;;12.80;99.90;;;;;;5148753;27;19911;-73
2022/11/15 16:06:27;;;;;;;;;;;12.80;99.90;;;;;;5148292;27;20402;-73
2022/11/15 16:08:53;;;;;;;;;;;12.80;99.90;;;;;;5148179;27;20558;-72
2022/11/15 16:11:19;;;;;;;;;;;12.80;99.90;;;;;;5139527;27;19931;-72
2022/11/15 16:13:58;;;;;;;;;;;12.80;99.90;;;;;;5101416;27;20374;-72
2022/11/15 16:16:23;;;;;;;;;;;12.80;99.90;;;;;;5044756;28;19909;-72
2022/11/15 16:18:49;;;;;;;;;;;12.80;99.90;;;;;;5028311;28;20433;-72
2022/11/15 16:21:15;;;;;;;;;;;12.80;99.90;;;;;;5038066;28;95384;-72
2022/11/15 16:23:40;;;;;;;;;;;12.80;99.90;;;;;;5046005;28;19913;-72
2022/11/15 16:26:26;;;;;;;;;;;12.80;99.90;;;;;;5039698;28;19974;-72
2022/11/15 16:28:52;;;;;;;;;;;12.80;99.90;;;;;;5049017;28;20431;-72
2022/11/15 16:31:19;;;;;;;;;;;12.80;99.90;;;;;;5065206;28;19920;-72
2022/11/15 16:33:45;;;;;;;;;;;12.80;99.90;;;;;;5067022;28;19928;-72
2022/11/15 16:36:17;;;;;;;;;;;12.80;99.90;;;;;;5066824;28;20014;-72
2022/11/15 16:38:43;;;;;;;;;;;12.90;99.90;;;;;;5066410;28;19912;-72
2022/11/15 16:41:08;;;;;;;;;;;12.90;99.90;;;;;;5066777;28;20335;-72
2022/11/15 16:43:34;;;;;;;;;;;12.80;99.90;;;;;;5065492;28;20003;-75
2022/11/15 16:46:06;;;;;;;;;;;12.90;99.90;;;;;;5065656;28;19917;-69
2022/11/15 16:48:33;;;;;;;;;;;12.90;99.90;;;;;;5066531;28;19913;-70
2022/11/15 16:50:59;;;;;;;;;;;13.00;99.90;;;;;;5066896;28;19909;-71
2022/11/15 16:53:25;;;;;;;;;;;13.00;99.90;;;;;;5066097;28;19921;-70
2022/11/15 16:55:51;;;;;;;;;;;13.10;99.90;;;;;;5066572;28;20300;-69
2022/11/15 16:58:17;;;;;;;;;;;13.20;99.90;;;;;;5065347;28;19935;-71
2022/11/15 17:00:42;;;;;;;;;;;13.20;99.90;;;;;;5066126;28;19917;-72
2022/11/15 17:03:08;;;;;;;;;;;13.20;99.90;;;;;;5064629;28;19913;-73
2022/11/15 17:05:34;;;;;;;;;;;13.20;99.90;;;;;;5066156;28;19971;-72
2022/11/15 17:07:59;;;;;;;;;;;13.20;99.90;;;;;;5064886;28;19924;-72
2022/11/15 17:10:25;;;;;;;;;;;13.10;99.90;;;;;;5064282;28;20284;-71
2022/11/15 17:12:52;;;;;;;;;;;13.10;99.90;;;;;;5064314;28;19920;-72
2022/11/15 17:15:17;;;;;;;;;;;13.10;99.90;;;;;;5065989;28;20293;-72
2022/11/15 17:17:43;;;;;;;;;;;13.00;99.90;;;;;;5065569;28;19912;-73
2022/11/15 17:20:16;;;;;;;;;;;13.10;99.90;;;;;;5064331;28;19977;-72
2022/11/15 17:22:42;;;;;;;;;;;13.10;99.90;;;;;;5065321;28;20303;-72
2022/11/15 17:25:08;;;;;;;;;;;13.10;99.90;;;;;;5054141;28;20019;-72
2022/11/15 17:27:33;;;;;;;;;;;13.10;99.90;;;;;;5052703;28;20008;-68
2022/11/15 17:29:59;;;;;;;;;;;13.10;99.90;;;;;;5051743;28;20595;-69
2022/11/15 17:32:25;;;;;;;;;;;13.30;99.90;;;;;;5053359;28;19921;-70
2022/11/15 17:34:50;;;;;;;;;;;13.20;99.90;;;;;;5051722;28;19913;-69
2022/11/15 17:37:16;;;;;;;;;;;13.20;99.90;;;;;;5052592;28;19916;-69
2022/11/15 17:39:42;;;;;;;;;;;13.30;99.90;;;;;;5051193;28;19951;-69
2022/11/15 17:42:08;;;;;;;;;;;13.20;99.90;;;;;;5051908;28;19913;-70
2022/11/15 17:44:33;;;;;;;;;;;13.20;99.90;;;;;;5052037;28;19912;-69
2022/11/15 17:46:59;;;;;;;;;;;13.20;99.90;;;;;;5051806;28;20381;-69
2022/11/15 17:49:25;;;;;;;;;;;13.20;99.90;;;;;;5052682;28;19919;-69
2022/11/15 17:51:51;;;;;;;;;;;13.20;99.90;;;;;;5052485;28;20353;-70
2022/11/15 17:54:17;;;;;;;;;;;13.10;99.90;;;;;;5052302;28;19935;-70
2022/11/15 17:56:43;;;;;;;;;;;13.20;99.90;;;;;;5053275;28;20452;-70
2022/11/15 17:59:08;;;;;;;;;;;13.20;99.90;;;;;;5053232;28;19920;-70
2022/11/15 18:01:35;;;;;;;;;;;13.20;99.90;;;;;;5052086;28;19912;-69
2022/11/15 18:04:02;;;;;;;;;;;13.10;99.90;;;;;;5051907;28;19924;-69
2022/11/15 18:06:30;;;;;;;;;;;13.20;99.90;;;;;;5053058;28;19913;-70
2022/11/15 18:08:56;;;;;;;;;;;13.20;99.90;;;;;;5051867;28;19917;-70
2022/11/15 18:11:23;;;;;;;;;;;13.20;99.90;;;;;;5053396;28;19920;-70
2022/11/15 18:13:51;;;;;;;;;;;13.20;99.90;;;;;;5053109;28;19928;-70
2022/11/15 18:16:18;;;;;;;;;;;13.20;99.90;;;;;;5052231;28;20281;-69
2022/11/15 18:18:44;;;;;;;;;;;13.20;99.90;;;;;;5052967;28;19920;-71
2022/11/15 18:21:11;;;;;;;;;;;13.20;99.90;;;;;;5053304;28;19916;-70
2022/11/15 18:23:37;;;;;;;;;;;13.20;99.90;;;;;;5051996;28;19909;-70
2022/11/15 18:26:04;;;;;;;;;;;13.20;99.90;;;;;;5051629;28;19963;-69
2022/11/15 18:28:31;;;;;;;;;;;13.20;99.90;;;;;;5052943;28;19966;-69
2022/11/15 18:30:57;;;;;;;;;;;13.20;99.90;;;;;;5051782;28;19913;-70
2022/11/15 18:33:23;;;;;;;;;;;13.20;99.90;;;;;;5053010;28;19978;-70
2022/11/15 18:35:49;;;;;;;;;;;13.20;99.90;;;;;;5051938;28;20005;-70
2022/11/15 18:38:15;;;;;;;;;;;13.20;99.90;;;;;;5051678;28;20289;-70
2022/11/15 18:40:41;;;;;;;;;;;13.20;99.90;;;;;;5052540;28;19925;-69
2022/11/15 18:43:06;;;;;;;;;;;13.20;99.90;;;;;;5053005;28;19920;-70
2022/11/15 18:45:33;;;;;;;;;;;13.20;99.90;;;;;;5052708;28;19912;-70
2022/11/15 18:47:58;;;;;;;;;;;13.20;99.90;;;;;;5052508;28;19916;-70
2022/11/15 18:50:24;;;;;;;;;;;13.20;99.90;;;;;;5052579;28;19913;-70
2022/11/15 18:52:50;;;;;;;;;;;13.10;99.90;;;;;;5052542;28;19917;-70
2022/11/15 18:55:16;;;;;;;;;;;13.10;99.90;;;;;;5052672;28;20262;-70
2022/11/15 18:57:41;;;;;;;;;;;13.10;99.90;;;;;;5052128;28;19913;-69
2022/11/15 19:00:08;;;;;;;;;;;13.10;99.90;;;;;;5051118;28;19967;-70
2022/11/15 19:02:33;;;;;;;;;;;13.00;99.90;;;;;;5052373;28;19913;-70
2022/11/15 19:04:59;;;;;;;;;;;13.00;99.90;;;;;;5052405;28;19921;-69
2022/11/15 19:07:25;;;;;;;;;;;13.00;99.90;;;;;;5051846;28;19930;-69
2022/11/15 19:09:51;;;;;;;;;;;13.00;99.90;;;;;;5052139;28;19920;-70
2022/11/15 19:12:16;;;;;;;;;;;13.00;99.90;;;;;;5052083;28;19927;-69
2022/11/15 19:14:42;;;;;;;;;;;12.90;99.90;;;;;;5052027;28;19913;-69
2022/11/15 19:17:08;;;;;;;;;;;12.90;99.90;;;;;;5051956;28;19920;-69
2022/11/15 19:19:34;;;;;;;;;;;12.90;99.90;;;;;;5051843;28;19913;-70
2022/11/15 19:22:00;;;;;;;;;;;12.90;99.90;;;;;;5052055;28;19917;-69
2022/11/15 19:24:26;;;;;;;;;;;12.90;99.90;;;;;;5051960;28;20385;-70
2022/11/15 19:26:52;;;;;;;;;;;12.90;99.90;;;;;;5051816;28;19913;-70
2022/11/15 19:29:17;;;;;;;;;;;12.80;99.90;;;;;;5051605;28;19913;-69
2022/11/15 19:31:43;;;;;;;;;;;12.80;99.90;;;;;;5051758;28;20384;-70
2022/11/15 19:34:09;;;;;;;;;;;12.80;99.90;;;;;;5050543;28;19994;-69
2022/11/15 19:36:36;;;;;;;;;;;12.70;99.90;;;;;;5050122;28;19971;-70
2022/11/15 19:39:06;;;;;;;;;;;12.70;99.90;;;;;;5050268;28;20280;-70
2022/11/15 19:41:33;;;;;;;;;;;12.70;99.90;;;;;;5051566;28;20441;-70
2022/11/15 19:43:59;;;;;;;;;;;12.70;99.90;;;;;;5051656;28;19917;-69
2022/11/15 19:46:25;;;;;;;;;;;12.70;99.90;;;;;;5051090;28;19920;-69
2022/11/15 19:48:51;;;;;;;;;;;12.70;99.90;;;;;;5050023;28;19952;-70
2022/11/15 19:51:25;;;;;;;;;;;12.60;99.90;;;;;;5050462;28;19913;-70
2022/11/15 19:53:55;;;;;;;;;;;12.60;99.90;;;;;;5051583;28;19971;-70
2022/11/15 19:56:21;;;;;;;;;;;12.60;99.90;;;;;;5051188;28;20007;-70
2022/11/15 19:58:51;;;;;;;;;;;12.60;99.90;;;;;;5049925;28;20443;-69
2022/11/15 20:01:17;;;;;;;;;;;12.60;99.90;;;;;;5051408;28;19913;-69
2022/11/15 20:03:43;;;;;;;;;;;12.60;99.90;;;;;;5051302;28;19916;-69
2022/11/15 20:06:16;;;;;;;;;;;12.60;99.90;;;;;;5051146;28;19974;-69
2022/11/15 20:08:43;;;;;;;;;;;12.60;99.90;;;;;;5049695;28;19912;-69
2022/11/15 20:11:10;;;;;;;;;;;12.60;99.90;;;;;;5051413;28;19919;-70
2022/11/15 20:13:36;;;;;;;;;;;12.60;99.90;;;;;;5051016;28;20381;-70
2022/11/15 20:16:01;;;;;;;;;;;12.50;99.90;;;;;;5051292;28;19960;-71
2022/11/15 20:18:30;;;;;;;;;;;12.50;99.90;;;;;;5050854;28;20007;-71
2022/11/15 20:20:57;;;;;;;;;;;12.60;99.90;;;;;;5051280;28;20289;-70
2022/11/15 20:23:24;;;;;;;;;;;12.50;99.90;;;;;;5049880;28;19916;-71
2022/11/15 20:25:49;;;;;;;;;;;12.60;99.90;;;;;;5051008;28;19917;-70
2022/11/15 20:28:34;;;;;;;;;;;12.50;99.90;;;;;;5049616;28;20062;-71
2022/11/15 20:31:00;;;;;;;;;;;12.60;99.90;;;;;;5033191;28;20518;-70
2022/11/15 20:33:26;;;;;;;;;;;12.50;99.90;;;;;;5051231;28;19924;-71
2022/11/15 20:35:52;;;;;;;;;;;12.50;99.90;;;;;;5050869;28;20385;-71
2022/11/15 20:38:19;;;;;;;;;;;12.50;99.90;;;;;;5050878;28;19917;-71